Archival Weather

Chicago O'Hare International

Chicago, Illinois (KORD)

Report from: Saturday, March 5, 2022 12:51 PM CST
Current time: Saturday, February 4, 2023 10:14 PM CST

Current weather
Weather history
Weather forecast

Temperature18.9°C (66.0°F)
Dew point8.3°C (46.9°F)
Winds 13 kts (6.7 m/s, 15 mph) South (190°)
Wind gusts 24 kts (12.3 m/s, 27.6 mph)
Visibility10 mi. (16.1 km)
Clouds Few clouds 8,000 ft. (2,438 m)
Ceiling: Broken clouds 25,000 ft. (7,620 m)
Altimeter29.79 in.Hg (1009 mB)
Relative humidity50 %
Density altitude765 ft. (233 m)
Sea-level pressure100.9 kPa (1009 mB, 29.79 in.Hg)
Remarks System requires maintenance
Automated weather observing station with precipitation discriminator
Flight conditions Visual Meteorological Conditions
Raw dataKORD 051851Z 19013G24KT 10SM FEW080 BKN250 19/08 A2979 RMK AO2 SLP089 T01890083 $
An unhandled exception has occurred. See browser dev tools for details. Reload 🗙